createdAt,value
2022-11-29T00:00:16.008Z,1.29
2022-11-29T00:03:37.964Z,1.26
2022-11-29T00:06:40.511Z,1.29
2022-11-29T00:09:42.568Z,1.26
2022-11-29T00:12:48.110Z,1.11
2022-11-29T00:15:50.202Z,1.19
2022-11-29T00:18:52.415Z,1.31
2022-11-29T00:21:54.611Z,1.39
2022-11-29T00:24:57.000Z,1.43
2022-11-29T00:27:59.100Z,1.49
2022-11-29T00:31:01.525Z,1.42
2022-11-29T00:34:07.018Z,1.40
2022-11-29T00:37:09.311Z,1.43
2022-11-29T00:40:11.862Z,1.51
2022-11-29T00:43:14.258Z,1.39
2022-11-29T00:46:16.383Z,1.40
2022-11-29T00:49:18.879Z,1.37
2022-11-29T00:52:21.042Z,1.19
2022-11-29T00:55:23.301Z,1.24
2022-11-29T00:58:25.527Z,1.17
2022-11-29T01:01:27.980Z,1.18
2022-11-29T01:04:30.161Z,1.32
2022-11-29T01:07:32.472Z,1.24
2022-11-29T01:10:34.589Z,1.24
2022-11-29T01:13:37.199Z,1.34
2022-11-29T01:16:39.300Z,1.19
2022-11-29T01:19:44.156Z,1.24
2022-11-29T01:22:50.647Z,1.25
2022-11-29T01:26:04.434Z,1.27
2022-11-29T01:29:06.611Z,1.27
2022-11-29T01:32:08.809Z,1.28
2022-11-29T01:35:10.946Z,1.37
2022-11-29T01:38:13.178Z,1.30
2022-11-29T01:41:21.349Z,1.36
2022-11-29T01:44:23.540Z,1.41
2022-11-29T01:47:25.779Z,1.27
2022-11-29T01:50:28.083Z,1.25
2022-11-29T01:53:30.087Z,1.31
2022-11-29T01:56:33.954Z,1.36
2022-11-29T01:59:38.661Z,1.38
2022-11-29T02:03:05.872Z,1.32
2022-11-29T02:06:08.479Z,1.27
2022-11-29T02:09:20.071Z,1.38
2022-11-29T02:12:30.809Z,1.34
2022-11-29T02:15:39.051Z,1.43
2022-11-29T02:18:50.783Z,1.43
2022-11-29T02:22:10.630Z,1.43
2022-11-29T02:25:12.650Z,1.38
2022-11-29T02:28:34.077Z,1.37
2022-11-29T02:32:13.615Z,1.27
2022-11-29T02:35:52.805Z,1.20
2022-11-29T02:39:13.581Z,1.18
2022-11-29T02:42:56.858Z,1.23
2022-11-29T02:46:11.391Z,1.30
2022-11-29T02:49:28.563Z,1.27
2022-11-29T02:52:34.072Z,1.18
2022-11-29T02:55:44.460Z,1.16
2022-11-29T02:59:08.554Z,1.22
2022-11-29T03:02:10.780Z,1.18
2022-11-29T03:05:12.864Z,1.20
2022-11-29T03:08:18.115Z,1.22
2022-11-29T03:11:38.300Z,1.30
2022-11-29T03:14:43.957Z,1.29
2022-11-29T03:17:53.974Z,1.24
2022-11-29T03:21:17.893Z,1.13
2022-11-29T03:24:32.008Z,1.24
2022-11-29T03:27:58.480Z,1.22
2022-11-29T03:31:11.827Z,1.11
2022-11-29T03:34:39.748Z,1.13
2022-11-29T03:37:55.506Z,1.09
2022-11-29T03:41:08.310Z,1.05
2022-11-29T03:44:17.607Z,1.04
2022-11-29T03:47:24.424Z,1.14
2022-11-29T03:50:33.101Z,1.24
2022-11-29T03:54:26.649Z,1.19
2022-11-29T03:57:35.683Z,1.19
2022-11-29T04:00:50.147Z,1.23
2022-11-29T04:04:10.553Z,1.27
2022-11-29T04:07:36.942Z,1.28
2022-11-29T04:11:06.108Z,1.24
2022-11-29T04:14:26.835Z,1.25
2022-11-29T04:17:47.781Z,1.04
2022-11-29T04:21:28.789Z,1.12
2022-11-29T04:24:33.784Z,1.14
2022-11-29T04:27:49.554Z,1.15
2022-11-29T04:31:13.466Z,1.03
2022-11-29T04:34:40.307Z,1.06
2022-11-29T04:38:07.223Z,1.10
2022-11-29T04:41:48.254Z,1.05
2022-11-29T04:45:27.785Z,0.92
2022-11-29T04:48:32.937Z,0.95
2022-11-29T04:51:53.889Z,1.00
2022-11-29T04:55:43.728Z,0.94
2022-11-29T04:58:51.353Z,0.95
2022-11-29T05:02:12.157Z,1.00
2022-11-29T05:05:34.391Z,0.95
2022-11-29T05:08:47.227Z,0.86
2022-11-29T05:12:07.825Z,0.93
2022-11-29T05:15:12.639Z,0.96
2022-11-29T05:18:43.503Z,1.00
2022-11-29T05:21:57.901Z,0.84
2022-11-29T05:25:23.029Z,0.95
2022-11-29T05:28:43.458Z,0.99
2022-11-29T05:32:10.067Z,0.94
2022-11-29T05:35:51.240Z,1.01
2022-11-29T05:39:23.468Z,0.95
2022-11-29T05:42:47.551Z,0.84
2022-11-29T05:45:57.982Z,0.90
2022-11-29T05:49:24.512Z,1.02
2022-11-29T05:52:47.610Z,0.87
2022-11-29T05:56:27.340Z,0.97
2022-11-29T05:59:30.618Z,0.93
2022-11-29T06:02:45.015Z,0.86
2022-11-29T06:06:01.042Z,0.87
2022-11-29T06:09:06.278Z,0.93
2022-11-29T06:12:21.032Z,0.98
2022-11-29T06:15:35.840Z,0.93
2022-11-29T06:19:12.141Z,0.93
2022-11-29T06:22:39.293Z,1.05
2022-11-29T06:25:47.135Z,1.10
2022-11-29T06:29:01.827Z,1.14
2022-11-29T06:32:19.831Z,1.05
2022-11-29T06:35:35.066Z,1.14
2022-11-29T06:38:37.520Z,1.11
2022-11-29T06:41:39.971Z,1.00
2022-11-29T06:44:42.921Z,1.06
2022-11-29T06:48:05.341Z,1.04
2022-11-29T06:51:24.809Z,1.09
2022-11-29T06:54:53.321Z,1.04
2022-11-29T06:58:24.603Z,1.09
2022-11-29T07:01:41.036Z,0.95
2022-11-29T07:05:02.154Z,0.91
2022-11-29T07:08:08.978Z,0.90
2022-11-29T07:11:14.222Z,0.94
2022-11-29T07:14:16.745Z,0.99
2022-11-29T07:17:48.066Z,1.02
2022-11-29T07:21:07.640Z,0.94
2022-11-29T07:24:35.308Z,1.05
2022-11-29T07:28:05.445Z,0.98
2022-11-29T07:31:07.604Z,0.95
2022-11-29T07:34:33.086Z,0.90
2022-11-29T07:38:12.638Z,0.84
2022-11-29T07:41:14.892Z,0.84
2022-11-29T07:44:38.050Z,0.78
2022-11-29T07:47:40.340Z,0.80
2022-11-29T07:50:42.622Z,0.81
2022-11-29T07:53:45.056Z,0.75
2022-11-29T07:56:47.506Z,0.76
2022-11-29T07:59:49.690Z,0.82
2022-11-29T08:02:51.935Z,0.82
2022-11-29T08:05:54.286Z,0.88
2022-11-29T08:08:59.995Z,0.92
2022-11-29T08:12:02.243Z,0.90
2022-11-29T08:15:04.815Z,0.93
2022-11-29T08:18:07.032Z,0.86
2022-11-29T08:21:09.136Z,0.92
2022-11-29T08:24:11.341Z,0.97
2022-11-29T08:27:13.347Z,0.95
2022-11-29T08:30:18.753Z,0.99
2022-11-29T08:33:20.821Z,1.02
2022-11-29T08:36:23.018Z,1.01
2022-11-29T08:39:25.157Z,1.07
2022-11-29T08:42:27.390Z,1.10
2022-11-29T08:45:29.594Z,1.10
2022-11-29T08:48:32.386Z,1.09
2022-11-29T08:51:34.515Z,1.08
2022-11-29T08:54:36.726Z,1.03
2022-11-29T08:57:40.494Z,0.99
2022-11-29T09:00:45.557Z,1.03
2022-11-29T09:03:59.766Z,1.06
2022-11-29T09:07:02.134Z,1.07
2022-11-29T09:10:08.143Z,1.12
2022-11-29T09:13:11.950Z,1.04
2022-11-29T09:16:20.027Z,1.24
2022-11-29T09:19:22.368Z,1.22
2022-11-29T09:22:24.393Z,1.23
2022-11-29T09:25:27.612Z,1.16
2022-11-29T09:28:30.399Z,1.16
2022-11-29T09:31:33.531Z,1.29
2022-11-29T09:34:35.633Z,1.48
2022-11-29T09:37:38.074Z,1.30
2022-11-29T09:41:24.890Z,1.33
2022-11-29T09:44:29.791Z,1.34
2022-11-29T09:47:50.298Z,1.49
2022-11-29T09:51:01.670Z,1.45
2022-11-29T09:54:13.359Z,1.37
2022-11-29T09:57:17.496Z,1.39
2022-11-29T10:00:20.195Z,1.56
2022-11-29T10:03:26.972Z,1.48
2022-11-29T10:06:36.653Z,1.59
2022-11-29T10:10:03.678Z,1.65
2022-11-29T10:13:29.746Z,1.58
2022-11-29T10:16:52.617Z,1.59
2022-11-29T10:20:00.214Z,1.70
2022-11-29T10:23:12.206Z,1.72
2022-11-29T10:26:15.038Z,1.82
2022-11-29T10:29:17.356Z,1.73
2022-11-29T10:32:21.301Z,1.82
2022-11-29T10:35:23.992Z,1.85
2022-11-29T10:38:31.207Z,1.80
2022-11-29T10:41:35.736Z,1.86
2022-11-29T10:44:37.664Z,1.88
2022-11-29T10:47:39.922Z,1.83
2022-11-29T10:50:44.181Z,1.92
2022-11-29T10:53:46.870Z,1.85
2022-11-29T10:56:48.860Z,1.94
2022-11-29T11:00:07.766Z,1.96
2022-11-29T11:03:31.774Z,1.93
2022-11-29T11:06:55.741Z,1.94
2022-11-29T11:09:58.274Z,2.02
2022-11-29T11:13:06.803Z,2.06
2022-11-29T11:16:20.420Z,2.14
2022-11-29T11:19:27.906Z,2.03
2022-11-29T11:22:32.352Z,2.07
2022-11-29T11:25:37.746Z,2.15
2022-11-29T11:28:56.873Z,2.24
2022-11-29T11:31:59.981Z,2.16
2022-11-29T11:35:02.898Z,2.13
2022-11-29T11:38:05.116Z,2.12
2022-11-29T11:41:19.693Z,1.97
2022-11-29T11:44:57.998Z,1.90
2022-11-29T11:48:12.299Z,1.99
2022-11-29T11:51:25.760Z,1.98
2022-11-29T11:54:28.908Z,2.05
2022-11-29T11:57:31.619Z,2.08
2022-11-29T12:01:05.048Z,2.15
2022-11-29T12:04:07.623Z,2.06
2022-11-29T12:07:38.982Z,2.03
2022-11-29T12:10:52.383Z,1.90
2022-11-29T12:13:57.156Z,1.89
2022-11-29T12:17:19.803Z,1.90
2022-11-29T12:20:25.838Z,1.90
2022-11-29T12:23:37.656Z,1.98
2022-11-29T12:26:58.650Z,2.07
2022-11-29T12:30:01.366Z,2.09
2022-11-29T12:33:03.521Z,1.97
2022-11-29T12:36:05.700Z,2.14
2022-11-29T12:39:44.493Z,2.17
2022-11-29T12:43:10.899Z,2.28
2022-11-29T12:46:28.023Z,2.21
2022-11-29T12:50:01.152Z,2.17
2022-11-29T12:53:40.735Z,2.26
2022-11-29T12:57:01.609Z,2.27
2022-11-29T13:00:03.591Z,2.10
2022-11-29T13:03:31.407Z,2.14
2022-11-29T13:06:40.238Z,2.06
2022-11-29T13:09:46.006Z,2.05
2022-11-29T13:12:59.830Z,2.11
2022-11-29T13:19:58.630Z,2.13
2022-11-29T13:23:45.489Z,2.14
2022-11-29T13:26:48.846Z,2.04
2022-11-29T13:29:51.390Z,2.09
2022-11-29T13:32:56.234Z,2.10
2022-11-29T13:36:20.443Z,1.90
2022-11-29T13:39:42.266Z,1.89
2022-11-29T13:42:59.138Z,1.79
2022-11-29T13:46:19.775Z,1.89
2022-11-29T13:49:41.862Z,1.82
2022-11-29T13:52:45.423Z,1.75
2022-11-29T13:56:02.411Z,1.73
2022-11-29T13:59:09.840Z,1.71
2022-11-29T14:02:31.429Z,1.66
2022-11-29T14:05:38.383Z,1.68
2022-11-29T14:12:31.129Z,1.67
2022-11-29T14:15:33.484Z,1.59
2022-11-29T14:18:40.623Z,1.71
2022-11-29T14:22:03.296Z,1.73
2022-11-29T14:25:49.879Z,1.58
2022-11-29T14:28:45.196Z,1.53
2022-11-29T14:31:53.338Z,1.62
2022-11-29T14:35:19.621Z,1.56
2022-11-29T14:38:31.069Z,1.62
2022-11-29T14:41:55.327Z,1.55
2022-11-29T14:45:01.420Z,1.64
2022-11-29T14:48:03.985Z,1.65
2022-11-29T14:51:19.630Z,1.73
2022-11-29T14:54:21.949Z,1.64
2022-11-29T14:57:51.808Z,1.61
2022-11-29T15:00:57.662Z,1.48
2022-11-29T15:07:25.526Z,1.58
2022-11-29T15:10:31.828Z,1.47
2022-11-29T15:13:36.988Z,1.51
2022-11-29T15:16:52.392Z,1.44
2022-11-29T15:20:16.510Z,1.50
2022-11-29T15:23:19.218Z,1.33
2022-11-29T15:26:21.719Z,1.37
2022-11-29T15:29:24.722Z,1.28
2022-11-29T15:32:32.579Z,1.31
2022-11-29T15:35:35.849Z,1.31
2022-11-29T15:38:52.878Z,1.33
2022-11-29T15:42:00.380Z,1.27
2022-11-29T15:45:02.705Z,1.33
2022-11-29T15:48:27.067Z,1.36
2022-11-29T15:51:36.682Z,1.29
2022-11-29T15:54:42.950Z,1.42
2022-11-29T15:57:49.563Z,1.33
2022-11-29T16:00:52.427Z,1.35
2022-11-29T16:03:57.275Z,1.23
2022-11-29T16:06:59.487Z,1.22
2022-11-29T16:10:12.297Z,1.17
2022-11-29T16:13:39.692Z,1.20
2022-11-29T16:16:44.650Z,1.22
2022-11-29T16:19:47.816Z,1.21
2022-11-29T16:23:11.375Z,1.25
2022-11-29T16:26:19.456Z,1.32
2022-11-29T16:29:35.188Z,1.22
2022-11-29T16:32:43.028Z,1.16
2022-11-29T16:35:45.407Z,1.15
2022-11-29T16:39:05.020Z,1.14
2022-11-29T16:42:24.887Z,1.19
2022-11-29T16:45:41.611Z,1.20
2022-11-29T16:48:44.101Z,1.23
2022-11-29T16:51:48.521Z,1.33
2022-11-29T16:54:51.519Z,1.29
2022-11-29T16:57:53.773Z,1.27
2022-11-29T17:00:56.143Z,1.30
2022-11-29T17:04:00.445Z,1.32
2022-11-29T17:07:06.342Z,1.38
2022-11-29T17:10:11.885Z,1.36
2022-11-29T17:13:14.159Z,1.45
2022-11-29T17:16:18.467Z,1.40
2022-11-29T17:19:24.876Z,1.35
2022-11-29T17:22:27.037Z,1.41
2022-11-29T17:25:29.455Z,1.41
2022-11-29T17:28:31.649Z,1.48
2022-11-29T17:31:34.058Z,1.49
2022-11-29T17:34:36.178Z,1.42
2022-11-29T17:37:38.683Z,1.48
2022-11-29T17:43:20.458Z,1.52
2022-11-29T17:46:34.788Z,1.68
2022-11-29T17:49:37.216Z,1.63
2022-11-29T17:52:39.867Z,1.55
2022-11-29T17:55:42.220Z,1.48
2022-11-29T17:58:44.819Z,1.47
2022-11-29T18:01:50.102Z,1.42
2022-11-29T18:04:52.640Z,1.38
2022-11-29T18:08:00.701Z,1.46
2022-11-29T18:11:09.103Z,1.44
2022-11-29T18:14:20.930Z,1.37
2022-11-29T18:17:23.796Z,1.42
2022-11-29T18:20:25.840Z,1.38
2022-11-29T18:23:29.407Z,1.52
2022-11-29T18:26:33.017Z,1.56
2022-11-29T18:29:39.097Z,1.52
2022-11-29T18:32:41.665Z,1.49
2022-11-29T18:35:44.259Z,1.53
2022-11-29T18:38:47.174Z,1.46
2022-11-29T18:41:50.194Z,1.47
2022-11-29T18:44:58.604Z,1.47
2022-11-29T18:48:01.140Z,1.36
2022-11-29T18:51:08.742Z,1.37
2022-11-29T18:54:11.873Z,1.32
2022-11-29T18:57:13.980Z,1.41
2022-11-29T19:00:17.060Z,1.43
2022-11-29T19:03:19.271Z,1.39
2022-11-29T19:06:37.117Z,1.36
2022-11-29T19:09:41.353Z,1.42
2022-11-29T19:12:44.017Z,1.46
2022-11-29T19:15:53.029Z,1.47
2022-11-29T19:18:56.871Z,1.63
2022-11-29T19:21:59.756Z,1.66
2022-11-29T19:25:02.624Z,1.65
2022-11-29T19:48:58.460Z,1.39
2022-11-29T21:55:04.644Z,1.46
2022-11-29T21:58:07.424Z,1.58
2022-11-29T22:01:15.931Z,1.51
2022-11-29T22:04:19.148Z,1.36
2022-11-29T22:07:21.701Z,1.40
2022-11-29T22:10:24.412Z,1.44
2022-11-29T22:13:26.902Z,1.26
2022-11-29T22:16:30.534Z,1.31
2022-11-29T22:19:36.393Z,1.35
2022-11-29T22:22:39.119Z,1.35
2022-11-29T22:25:41.492Z,1.33
2022-11-29T22:28:44.206Z,1.40
2022-11-29T22:31:48.759Z,1.43
2022-11-29T22:34:51.564Z,1.50
2022-11-29T22:37:53.982Z,1.48
2022-11-29T22:41:04.201Z,1.49
2022-11-29T22:44:07.120Z,1.49
2022-11-29T22:47:12.983Z,1.38
2022-11-29T22:50:15.519Z,1.38
2022-11-29T22:53:18.342Z,1.33
2022-11-29T22:56:21.960Z,1.33
2022-11-29T22:59:24.869Z,1.30
2022-11-29T23:02:28.387Z,1.14
2022-11-29T23:05:32.545Z,1.21
2022-11-29T23:08:35.512Z,1.27
2022-11-29T23:11:38.900Z,1.27
2022-11-29T23:14:41.363Z,1.14
2022-11-29T23:17:44.253Z,1.06
2022-11-29T23:20:46.726Z,1.19
2022-11-29T23:23:54.643Z,1.22
2022-11-29T23:26:58.547Z,1.16
2022-11-29T23:30:01.253Z,1.12
2022-11-29T23:33:03.669Z,1.11
2022-11-29T23:36:07.705Z,1.18
2022-11-29T23:39:10.685Z,1.22
2022-11-29T23:42:13.423Z,1.40
2022-11-29T23:45:15.840Z,1.50
2022-11-29T23:48:18.505Z,1.51
2022-11-29T23:51:21.102Z,1.36
2022-11-29T23:54:23.786Z,1.40
2022-11-29T23:57:26.123Z,1.34
